sensor_id;sensor_type;location;lat;lon;timestamp;P1;P2;P0
57497;PMS5003;43336;51.416;-0.810;2023-04-25T00:01:20;3.00;3.00;2.00
57497;PMS5003;43336;51.416;-0.810;2023-04-25T00:04:22;3.33;3.33;2.33
57497;PMS5003;43336;51.416;-0.810;2023-04-25T00:07:22;1.00;1.00;1.00
57497;PMS5003;43336;51.416;-0.810;2023-04-25T00:10:23;2.67;2.67;2.00
57497;PMS5003;43336;51.416;-0.810;2023-04-25T00:13:24;2.00;2.00;2.00
57497;PMS5003;43336;51.416;-0.810;2023-04-25T00:16:26;3.67;3.00;2.00
57497;PMS5003;43336;51.416;-0.810;2023-04-25T00:19:27;2.00;2.00;2.00
57497;PMS5003;43336;51.416;-0.810;2023-04-25T00:22:31;3.00;3.00;2.00
57497;PMS5003;43336;51.416;-0.810;2023-04-25T00:25:31;2.67;2.33;1.67
57497;PMS5003;43336;51.416;-0.810;2023-04-25T00:28:32;3.33;3.33;2.00
57497;PMS5003;43336;51.416;-0.810;2023-04-25T00:31:33;4.00;2.67;2.00
57497;PMS5003;43336;51.416;-0.810;2023-04-25T00:34:34;3.00;3.00;2.33
57497;PMS5003;43336;51.416;-0.810;2023-04-25T00:37:34;2.33;2.33;2.33
57497;PMS5003;43336;51.416;-0.810;2023-04-25T00:40:36;3.00;3.00;2.33
57497;PMS5003;43336;51.416;-0.810;2023-04-25T00:43:36;1.67;1.67;1.00
57497;PMS5003;43336;51.416;-0.810;2023-04-25T00:46:38;2.33;2.33;1.33
57497;PMS5003;43336;51.416;-0.810;2023-04-25T00:49:39;2.00;2.00;1.00
57497;PMS5003;43336;51.416;-0.810;2023-04-25T00:52:42;2.67;2.67;2.00
57497;PMS5003;43336;51.416;-0.810;2023-04-25T00:55:44;2.33;2.33;1.67
57497;PMS5003;43336;51.416;-0.810;2023-04-25T00:58:45;1.33;1.33;1.00
57497;PMS5003;43336;51.416;-0.810;2023-04-25T01:01:45;2.00;2.00;2.00
57497;PMS5003;43336;51.416;-0.810;2023-04-25T01:04:47;1.67;1.67;1.00
57497;PMS5003;43336;51.416;-0.810;2023-04-25T01:07:48;2.00;2.00;2.00
57497;PMS5003;43336;51.416;-0.810;2023-04-25T01:10:50;3.33;2.67;2.00
57497;PMS5003;43336;51.416;-0.810;2023-04-25T01:13:50;2.67;2.00;1.33
57497;PMS5003;43336;51.416;-0.810;2023-04-25T01:16:51;2.00;2.00;1.00
57497;PMS5003;43336;51.416;-0.810;2023-04-25T01:19:53;2.00;2.00;1.33
57497;PMS5003;43336;51.416;-0.810;2023-04-25T01:22:54;1.00;1.00;1.00
57497;PMS5003;43336;51.416;-0.810;2023-04-25T01:25:55;2.33;2.33;2.33
57497;PMS5003;43336;51.416;-0.810;2023-04-25T01:28:56;2.00;2.00;2.00
57497;PMS5003;43336;51.416;-0.810;2023-04-25T01:31:57;2.00;2.00;2.00
57497;PMS5003;43336;51.416;-0.810;2023-04-25T01:34:59;2.00;2.00;1.33
57497;PMS5003;43336;51.416;-0.810;2023-04-25T01:38:00;2.00;2.00;1.67
57497;PMS5003;43336;51.416;-0.810;2023-04-25T01:41:01;1.33;1.33;1.33
57497;PMS5003;43336;51.416;-0.810;2023-04-25T01:44:02;2.00;2.00;1.33
57497;PMS5003;43336;51.416;-0.810;2023-04-25T01:47:03;2.00;2.00;1.33
57497;PMS5003;43336;51.416;-0.810;2023-04-25T01:50:04;2.00;2.00;1.00
57497;PMS5003;43336;51.416;-0.810;2023-04-25T01:53:05;2.00;2.00;1.33
57497;PMS5003;43336;51.416;-0.810;2023-04-25T01:56:06;0.33;0.33;0.33
57497;PMS5003;43336;51.416;-0.810;2023-04-25T01:59:07;3.00;3.00;2.00
57497;PMS5003;43336;51.416;-0.810;2023-04-25T02:02:08;1.00;1.00;0.67
57497;PMS5003;43336;51.416;-0.810;2023-04-25T02:05:09;1.00;1.00;0.00
57497;PMS5003;43336;51.416;-0.810;2023-04-25T02:08:09;1.67;1.67;1.00
57497;PMS5003;43336;51.416;-0.810;2023-04-25T02:11:10;1.33;1.33;1.00
57497;PMS5003;43336;51.416;-0.810;2023-04-25T02:14:11;1.00;1.00;1.00
57497;PMS5003;43336;51.416;-0.810;2023-04-25T02:17:12;2.00;2.00;2.00
57497;PMS5003;43336;51.416;-0.810;2023-04-25T02:20:12;1.33;1.00;1.00
57497;PMS5003;43336;51.416;-0.810;2023-04-25T02:23:13;1.33;1.33;1.00
57497;PMS5003;43336;51.416;-0.810;2023-04-25T02:26:15;0.00;0.00;0.00
57497;PMS5003;43336;51.416;-0.810;2023-04-25T02:29:16;1.00;1.00;1.00
57497;PMS5003;43336;51.416;-0.810;2023-04-25T02:32:16;1.00;1.00;1.00
57497;PMS5003;43336;51.416;-0.810;2023-04-25T02:35:17;2.00;2.00;1.00
57497;PMS5003;43336;51.416;-0.810;2023-04-25T02:38:18;2.00;2.00;2.00
57497;PMS5003;43336;51.416;-0.810;2023-04-25T02:41:19;1.00;1.00;0.33
57497;PMS5003;43336;51.416;-0.810;2023-04-25T02:44:20;1.33;1.33;1.00
57497;PMS5003;43336;51.416;-0.810;2023-04-25T02:47:21;1.00;0.00;0.00
57497;PMS5003;43336;51.416;-0.810;2023-04-25T02:50:22;1.00;1.00;0.33
57497;PMS5003;43336;51.416;-0.810;2023-04-25T02:53:23;1.00;1.00;1.00
57497;PMS5003;43336;51.416;-0.810;2023-04-25T02:56:24;1.33;1.33;0.67
57497;PMS5003;43336;51.416;-0.810;2023-04-25T02:59:26;1.00;1.00;1.00
57497;PMS5003;43336;51.416;-0.810;2023-04-25T03:02:27;1.00;0.67;0.00
57497;PMS5003;43336;51.416;-0.810;2023-04-25T03:05:27;1.00;1.00;1.00
57497;PMS5003;43336;51.416;-0.810;2023-04-25T03:08:28;1.00;1.00;1.00
57497;PMS5003;43336;51.416;-0.810;2023-04-25T03:11:33;1.00;1.00;1.00
57497;PMS5003;43336;51.416;-0.810;2023-04-25T03:14:33;1.00;1.00;1.00
57497;PMS5003;43336;51.416;-0.810;2023-04-25T03:17:34;0.00;0.00;0.00
57497;PMS5003;43336;51.416;-0.810;2023-04-25T03:20:35;1.00;1.00;1.00
57497;PMS5003;43336;51.416;-0.810;2023-04-25T03:23:36;1.00;1.00;1.00
57497;PMS5003;43336;51.416;-0.810;2023-04-25T03:26:36;1.67;1.67;1.00
57497;PMS5003;43336;51.416;-0.810;2023-04-25T03:29:37;1.00;1.00;0.67
57497;PMS5003;43336;51.416;-0.810;2023-04-25T03:32:38;0.67;0.67;0.00
57497;PMS5003;43336;51.416;-0.810;2023-04-25T03:35:38;0.67;0.67;0.67
57497;PMS5003;43336;51.416;-0.810;2023-04-25T03:38:39;1.00;1.00;1.00
57497;PMS5003;43336;51.416;-0.810;2023-04-25T03:41:41;2.33;2.00;1.67
57497;PMS5003;43336;51.416;-0.810;2023-04-25T03:44:42;1.00;1.00;1.00
57497;PMS5003;43336;51.416;-0.810;2023-04-25T03:47:43;1.67;1.67;1.00
57497;PMS5003;43336;51.416;-0.810;2023-04-25T03:50:43;1.67;1.67;1.00
57497;PMS5003;43336;51.416;-0.810;2023-04-25T03:53:44;1.00;1.00;1.00
57497;PMS5003;43336;51.416;-0.810;2023-04-25T03:56:44;1.00;1.00;1.00
57497;PMS5003;43336;51.416;-0.810;2023-04-25T03:59:45;1.00;1.00;0.00
57497;PMS5003;43336;51.416;-0.810;2023-04-25T04:02:46;1.00;1.00;1.00
57497;PMS5003;43336;51.416;-0.810;2023-04-25T04:05:47;0.67;0.67;0.33
57497;PMS5003;43336;51.416;-0.810;2023-04-25T04:08:47;0.00;0.00;0.00
57497;PMS5003;43336;51.416;-0.810;2023-04-25T04:11:48;1.00;1.00;0.00
57497;PMS5003;43336;51.416;-0.810;2023-04-25T04:14:49;1.00;1.00;0.67
57497;PMS5003;43336;51.416;-0.810;2023-04-25T04:17:50;0.00;0.00;0.00
57497;PMS5003;43336;51.416;-0.810;2023-04-25T04:20:50;1.00;1.00;0.33
57497;PMS5003;43336;51.416;-0.810;2023-04-25T04:23:51;1.00;1.00;1.00
57497;PMS5003;43336;51.416;-0.810;2023-04-25T04:26:52;0.00;0.00;0.00
57497;PMS5003;43336;51.416;-0.810;2023-04-25T04:29:53;0.00;0.00;0.00
57497;PMS5003;43336;51.416;-0.810;2023-04-25T04:32:53;1.00;1.00;0.67
57497;PMS5003;43336;51.416;-0.810;2023-04-25T04:35:54;1.00;1.00;0.00
57497;PMS5003;43336;51.416;-0.810;2023-04-25T04:38:55;0.67;0.67;0.00
57497;PMS5003;43336;51.416;-0.810;2023-04-25T04:41:56;0.00;0.00;0.00
57497;PMS5003;43336;51.416;-0.810;2023-04-25T04:44:57;0.00;0.00;0.00
57497;PMS5003;43336;51.416;-0.810;2023-04-25T04:47:59;0.00;0.00;0.00
57497;PMS5003;43336;51.416;-0.810;2023-04-25T04:50:59;0.00;0.00;0.00
57497;PMS5003;43336;51.416;-0.810;2023-04-25T04:54:00;1.33;1.00;0.33
57497;PMS5003;43336;51.416;-0.810;2023-04-25T04:57:02;1.00;1.00;0.00
57497;PMS5003;43336;51.416;-0.810;2023-04-25T05:00:03;1.33;1.33;1.00
57497;PMS5003;43336;51.416;-0.810;2023-04-25T05:03:05;0.00;0.00;0.00
57497;PMS5003;43336;51.416;-0.810;2023-04-25T05:06:06;1.00;1.00;0.33
57497;PMS5003;43336;51.416;-0.810;2023-04-25T05:09:06;0.00;0.00;0.00
57497;PMS5003;43336;51.416;-0.810;2023-04-25T05:12:07;0.67;0.00;0.00
57497;PMS5003;43336;51.416;-0.810;2023-04-25T05:15:08;1.00;1.00;1.00
57497;PMS5003;43336;51.416;-0.810;2023-04-25T05:18:09;1.00;1.00;1.00
57497;PMS5003;43336;51.416;-0.810;2023-04-25T05:21:10;1.00;1.00;0.00
57497;PMS5003;43336;51.416;-0.810;2023-04-25T05:24:11;1.00;1.00;0.00
57497;PMS5003;43336;51.416;-0.810;2023-04-25T05:27:12;2.00;2.00;1.00
57497;PMS5003;43336;51.416;-0.810;2023-04-25T05:30:13;0.67;0.67;0.00
57497;PMS5003;43336;51.416;-0.810;2023-04-25T05:33:13;1.00;1.00;0.67
57497;PMS5003;43336;51.416;-0.810;2023-04-25T05:36:15;0.00;0.00;0.00
57497;PMS5003;43336;51.416;-0.810;2023-04-25T05:39:15;0.00;0.00;0.00
57497;PMS5003;43336;51.416;-0.810;2023-04-25T05:42:17;1.00;1.00;0.00
57497;PMS5003;43336;51.416;-0.810;2023-04-25T05:45:18;0.00;0.00;0.00
57497;PMS5003;43336;51.416;-0.810;2023-04-25T05:48:19;0.00;0.00;0.00
57497;PMS5003;43336;51.416;-0.810;2023-04-25T05:51:19;1.00;1.00;1.00
57497;PMS5003;43336;51.416;-0.810;2023-04-25T05:54:20;0.33;0.33;0.00
57497;PMS5003;43336;51.416;-0.810;2023-04-25T05:57:22;1.00;1.00;1.00
57497;PMS5003;43336;51.416;-0.810;2023-04-25T06:00:24;0.00;0.00;0.00
57497;PMS5003;43336;51.416;-0.810;2023-04-25T06:03:25;0.33;0.33;0.00
57497;PMS5003;43336;51.416;-0.810;2023-04-25T06:06:26;1.00;1.00;0.00
57497;PMS5003;43336;51.416;-0.810;2023-04-25T06:09:27;0.33;0.33;0.00
57497;PMS5003;43336;51.416;-0.810;2023-04-25T06:12:28;0.67;0.67;0.33
57497;PMS5003;43336;51.416;-0.810;2023-04-25T06:15:29;0.00;0.00;0.00
57497;PMS5003;43336;51.416;-0.810;2023-04-25T06:18:30;0.00;0.00;0.00
57497;PMS5003;43336;51.416;-0.810;2023-04-25T06:21:30;1.00;1.00;1.00
57497;PMS5003;43336;51.416;-0.810;2023-04-25T06:24:31;1.00;1.00;0.00
57497;PMS5003;43336;51.416;-0.810;2023-04-25T06:27:33;1.00;1.00;1.00
57497;PMS5003;43336;51.416;-0.810;2023-04-25T06:30:34;0.00;0.00;0.00
57497;PMS5003;43336;51.416;-0.810;2023-04-25T06:33:34;0.00;0.00;0.00
57497;PMS5003;43336;51.416;-0.810;2023-04-25T06:36:35;0.67;0.67;0.00
57497;PMS5003;43336;51.416;-0.810;2023-04-25T06:39:36;0.00;0.00;0.00
57497;PMS5003;43336;51.416;-0.810;2023-04-25T06:42:38;0.00;0.00;0.00
57497;PMS5003;43336;51.416;-0.810;2023-04-25T06:45:38;0.33;0.33;0.33
57497;PMS5003;43336;51.416;-0.810;2023-04-25T06:48:41;0.67;0.67;0.33
57497;PMS5003;43336;51.416;-0.810;2023-04-25T06:51:41;0.67;0.67;0.33
57497;PMS5003;43336;51.416;-0.810;2023-04-25T06:54:42;0.33;0.33;0.00
57497;PMS5003;43336;51.416;-0.810;2023-04-25T06:57:43;1.00;1.00;0.33
57497;PMS5003;43336;51.416;-0.810;2023-04-25T07:00:44;0.00;0.00;0.00
57497;PMS5003;43336;51.416;-0.810;2023-04-25T07:06:45;0.00;0.00;0.00
57497;PMS5003;43336;51.416;-0.810;2023-04-25T07:09:47;0.67;0.67;0.67
57497;PMS5003;43336;51.416;-0.810;2023-04-25T07:12:48;0.33;0.33;0.00
57497;PMS5003;43336;51.416;-0.810;2023-04-25T07:15:49;0.00;0.00;0.00
57497;PMS5003;43336;51.416;-0.810;2023-04-25T07:18:51;0.00;0.00;0.00
57497;PMS5003;43336;51.416;-0.810;2023-04-25T07:21:52;0.00;0.00;0.00
57497;PMS5003;43336;51.416;-0.810;2023-04-25T07:24:53;0.00;0.00;0.00
57497;PMS5003;43336;51.416;-0.810;2023-04-25T07:27:53;0.00;0.00;0.00
57497;PMS5003;43336;51.416;-0.810;2023-04-25T07:30:54;0.00;0.00;0.00
57497;PMS5003;43336;51.416;-0.810;2023-04-25T07:33:55;0.00;0.00;0.00
57497;PMS5003;43336;51.416;-0.810;2023-04-25T07:36:56;0.00;0.00;0.00
57497;PMS5003;43336;51.416;-0.810;2023-04-25T07:39:56;0.00;0.00;0.00
57497;PMS5003;43336;51.416;-0.810;2023-04-25T07:42:57;0.00;0.00;0.00
57497;PMS5003;43336;51.416;-0.810;2023-04-25T07:46:03;0.00;0.00;0.00
57497;PMS5003;43336;51.416;-0.810;2023-04-25T07:49:08;0.00;0.00;0.00
57497;PMS5003;43336;51.416;-0.810;2023-04-25T07:52:08;0.00;0.00;0.00
57497;PMS5003;43336;51.416;-0.810;2023-04-25T07:55:09;0.00;0.00;0.00
57497;PMS5003;43336;51.416;-0.810;2023-04-25T07:58:11;0.00;0.00;0.00
57497;PMS5003;43336;51.416;-0.810;2023-04-25T08:01:12;0.00;0.00;0.00
57497;PMS5003;43336;51.416;-0.810;2023-04-25T08:04:12;0.00;0.00;0.00
57497;PMS5003;43336;51.416;-0.810;2023-04-25T08:07:13;0.00;0.00;0.00
57497;PMS5003;43336;51.416;-0.810;2023-04-25T08:10:13;0.00;0.00;0.00
57497;PMS5003;43336;51.416;-0.810;2023-04-25T08:16:27;0.00;0.00;0.00
57497;PMS5003;43336;51.416;-0.810;2023-04-25T08:19:29;0.00;0.00;0.00
57497;PMS5003;43336;51.416;-0.810;2023-04-25T08:22:30;0.00;0.00;0.00
57497;PMS5003;43336;51.416;-0.810;2023-04-25T08:25:32;0.00;0.00;0.00
57497;PMS5003;43336;51.416;-0.810;2023-04-25T08:28:32;0.00;0.00;0.00
57497;PMS5003;43336;51.416;-0.810;2023-04-25T08:31:33;0.00;0.00;0.00
57497;PMS5003;43336;51.416;-0.810;2023-04-25T08:34:34;0.00;0.00;0.00
57497;PMS5003;43336;51.416;-0.810;2023-04-25T08:37:37;1.00;1.00;0.33
57497;PMS5003;43336;51.416;-0.810;2023-04-25T08:40:38;0.00;0.00;0.00
57497;PMS5003;43336;51.416;-0.810;2023-04-25T08:43:42;0.00;0.00;0.00
57497;PMS5003;43336;51.416;-0.810;2023-04-25T08:46:43;0.00;0.00;0.00
57497;PMS5003;43336;51.416;-0.810;2023-04-25T08:49:49;0.00;0.00;0.00
57497;PMS5003;43336;51.416;-0.810;2023-04-25T08:52:54;0.00;0.00;0.00
57497;PMS5003;43336;51.416;-0.810;2023-04-25T08:55:57;0.00;0.00;0.00
57497;PMS5003;43336;51.416;-0.810;2023-04-25T08:58:58;0.00;0.00;0.00
57497;PMS5003;43336;51.416;-0.810;2023-04-25T09:02:01;0.00;0.00;0.00
57497;PMS5003;43336;51.416;-0.810;2023-04-25T09:05:02;0.00;0.00;0.00
57497;PMS5003;43336;51.416;-0.810;2023-04-25T09:08:04;0.00;0.00;0.00
57497;PMS5003;43336;51.416;-0.810;2023-04-25T09:11:06;0.00;0.00;0.00
57497;PMS5003;43336;51.416;-0.810;2023-04-25T09:14:14;0.00;0.00;0.00
57497;PMS5003;43336;51.416;-0.810;2023-04-25T09:17:17;0.00;0.00;0.00
57497;PMS5003;43336;51.416;-0.810;2023-04-25T09:20:18;0.00;0.00;0.00
57497;PMS5003;43336;51.416;-0.810;2023-04-25T09:23:20;0.67;0.67;0.00
57497;PMS5003;43336;51.416;-0.810;2023-04-25T09:26:22;0.00;0.00;0.00
57497;PMS5003;43336;51.416;-0.810;2023-04-25T09:29:28;0.33;0.33;0.33
57497;PMS5003;43336;51.416;-0.810;2023-04-25T09:32:31;0.00;0.00;0.00
57497;PMS5003;43336;51.416;-0.810;2023-04-25T09:35:35;0.00;0.00;0.00
57497;PMS5003;43336;51.416;-0.810;2023-04-25T09:38:41;0.00;0.00;0.00
57497;PMS5003;43336;51.416;-0.810;2023-04-25T09:41:46;1.00;1.00;0.00
57497;PMS5003;43336;51.416;-0.810;2023-04-25T09:44:47;0.00;0.00;0.00
57497;PMS5003;43336;51.416;-0.810;2023-04-25T09:47:47;1.00;1.00;0.67
57497;PMS5003;43336;51.416;-0.810;2023-04-25T09:54:09;0.33;0.33;0.00
57497;PMS5003;43336;51.416;-0.810;2023-04-25T09:57:15;1.00;1.00;0.00
57497;PMS5003;43336;51.416;-0.810;2023-04-25T10:00:16;0.33;0.33;0.33
57497;PMS5003;43336;51.416;-0.810;2023-04-25T10:03:18;0.00;0.00;0.00
57497;PMS5003;43336;51.416;-0.810;2023-04-25T10:06:22;1.00;1.00;0.33
57497;PMS5003;43336;51.416;-0.810;2023-04-25T10:09:26;0.33;0.33;0.00
57497;PMS5003;43336;51.416;-0.810;2023-04-25T10:12:34;0.00;0.00;0.00
57497;PMS5003;43336;51.416;-0.810;2023-04-25T10:15:35;0.00;0.00;0.00
57497;PMS5003;43336;51.416;-0.810;2023-04-25T10:18:38;0.00;0.00;0.00
57497;PMS5003;43336;51.416;-0.810;2023-04-25T10:21:40;0.00;0.00;0.00
57497;PMS5003;43336;51.416;-0.810;2023-04-25T10:24:48;0.00;0.00;0.00
57497;PMS5003;43336;51.416;-0.810;2023-04-25T10:27:51;0.00;0.00;0.00
57497;PMS5003;43336;51.416;-0.810;2023-04-25T10:34:01;1.00;1.00;1.00
57497;PMS5003;43336;51.416;-0.810;2023-04-25T10:37:02;1.00;1.00;0.67
57497;PMS5003;43336;51.416;-0.810;2023-04-25T10:40:08;1.67;1.67;1.00
57497;PMS5003;43336;51.416;-0.810;2023-04-25T10:46:40;0.00;0.00;0.00
57497;PMS5003;43336;51.416;-0.810;2023-04-25T10:49:41;0.00;0.00;0.00
57497;PMS5003;43336;51.416;-0.810;2023-04-25T10:52:43;0.00;0.00;0.00
57497;PMS5003;43336;51.416;-0.810;2023-04-25T10:55:50;0.33;0.33;0.00
57497;PMS5003;43336;51.416;-0.810;2023-04-25T10:58:52;0.33;0.33;0.33
57497;PMS5003;43336;51.416;-0.810;2023-04-25T11:02:11;0.33;0.33;0.33
57497;PMS5003;43336;51.416;-0.810;2023-04-25T11:05:20;1.33;1.33;1.00
57497;PMS5003;43336;51.416;-0.810;2023-04-25T11:08:41;0.00;0.00;0.00
57497;PMS5003;43336;51.416;-0.810;2023-04-25T11:11:54;1.00;1.00;0.00
57497;PMS5003;43336;51.416;-0.810;2023-04-25T11:15:02;1.00;1.00;1.00
57497;PMS5003;43336;51.416;-0.810;2023-04-25T11:18:05;1.00;1.00;1.00
57497;PMS5003;43336;51.416;-0.810;2023-04-25T11:21:06;0.00;0.00;0.00
57497;PMS5003;43336;51.416;-0.810;2023-04-25T11:24:07;1.00;1.00;1.00
57497;PMS5003;43336;51.416;-0.810;2023-04-25T11:27:07;1.00;1.00;0.33
57497;PMS5003;43336;51.416;-0.810;2023-04-25T11:30:10;1.00;1.00;1.00
57497;PMS5003;43336;51.416;-0.810;2023-04-25T11:33:15;1.00;1.00;0.33
57497;PMS5003;43336;51.416;-0.810;2023-04-25T11:36:17;0.00;0.00;0.00
57497;PMS5003;43336;51.416;-0.810;2023-04-25T11:39:18;1.00;1.00;1.00
57497;PMS5003;43336;51.416;-0.810;2023-04-25T11:42:19;1.00;1.00;1.00
57497;PMS5003;43336;51.416;-0.810;2023-04-25T11:45:20;1.00;1.00;0.00
57497;PMS5003;43336;51.416;-0.810;2023-04-25T11:48:23;2.67;1.33;1.00
57497;PMS5003;43336;51.416;-0.810;2023-04-25T11:51:24;2.33;1.33;1.00
57497;PMS5003;43336;51.416;-0.810;2023-04-25T11:54:25;0.00;0.00;0.00
57497;PMS5003;43336;51.416;-0.810;2023-04-25T11:57:26;1.00;1.00;1.00
57497;PMS5003;43336;51.416;-0.810;2023-04-25T12:00:27;0.00;0.00;0.00
57497;PMS5003;43336;51.416;-0.810;2023-04-25T12:03:29;0.00;0.00;0.00
57497;PMS5003;43336;51.416;-0.810;2023-04-25T12:06:31;1.00;1.00;1.00
57497;PMS5003;43336;51.416;-0.810;2023-04-25T12:09:32;0.33;0.33;0.00
57497;PMS5003;43336;51.416;-0.810;2023-04-25T12:12:34;1.00;1.00;1.00
57497;PMS5003;43336;51.416;-0.810;2023-04-25T12:15:35;1.00;1.00;0.33
57497;PMS5003;43336;51.416;-0.810;2023-04-25T12:18:41;1.33;1.33;1.00
57497;PMS5003;43336;51.416;-0.810;2023-04-25T12:21:41;1.00;1.00;0.00
57497;PMS5003;43336;51.416;-0.810;2023-04-25T12:24:44;1.33;1.33;1.33
57497;PMS5003;43336;51.416;-0.810;2023-04-25T12:27:45;1.00;1.00;1.00
57497;PMS5003;43336;51.416;-0.810;2023-04-25T12:30:56;0.67;0.67;0.00
57497;PMS5003;43336;51.416;-0.810;2023-04-25T12:33:59;0.00;0.00;0.00
57497;PMS5003;43336;51.416;-0.810;2023-04-25T12:40:00;1.00;1.00;1.00
57497;PMS5003;43336;51.416;-0.810;2023-04-25T12:43:04;0.67;0.67;0.33
57497;PMS5003;43336;51.416;-0.810;2023-04-25T12:46:04;1.33;1.33;1.00
57497;PMS5003;43336;51.416;-0.810;2023-04-25T12:49:06;1.00;1.00;1.00
57497;PMS5003;43336;51.416;-0.810;2023-04-25T12:52:08;2.00;2.00;1.00
57497;PMS5003;43336;51.416;-0.810;2023-04-25T12:55:09;1.00;1.00;1.00
57497;PMS5003;43336;51.416;-0.810;2023-04-25T12:58:09;0.00;0.00;0.00
57497;PMS5003;43336;51.416;-0.810;2023-04-25T13:01:10;1.00;1.00;1.00
57497;PMS5003;43336;51.416;-0.810;2023-04-25T13:04:12;1.00;1.00;1.00
57497;PMS5003;43336;51.416;-0.810;2023-04-25T13:07:13;1.00;1.00;1.00
57497;PMS5003;43336;51.416;-0.810;2023-04-25T13:10:14;0.33;0.33;0.33
57497;PMS5003;43336;51.416;-0.810;2023-04-25T13:13:14;2.00;2.00;1.33
57497;PMS5003;43336;51.416;-0.810;2023-04-25T13:16:16;1.33;1.33;0.33
57497;PMS5003;43336;51.416;-0.810;2023-04-25T13:19:17;1.33;1.00;1.00
57497;PMS5003;43336;51.416;-0.810;2023-04-25T13:22:18;1.00;1.00;1.00
57497;PMS5003;43336;51.416;-0.810;2023-04-25T13:25:20;1.33;1.33;1.00
57497;PMS5003;43336;51.416;-0.810;2023-04-25T13:28:22;1.33;1.33;1.00
57497;PMS5003;43336;51.416;-0.810;2023-04-25T13:31:22;1.00;1.00;0.00
57497;PMS5003;43336;51.416;-0.810;2023-04-25T13:34:23;0.00;0.00;0.00
57497;PMS5003;43336;51.416;-0.810;2023-04-25T13:37:24;1.00;1.00;1.00
57497;PMS5003;43336;51.416;-0.810;2023-04-25T13:40:24;1.00;1.00;1.00
57497;PMS5003;43336;51.416;-0.810;2023-04-25T13:43:27;1.67;1.67;1.00
57497;PMS5003;43336;51.416;-0.810;2023-04-25T13:46:27;1.33;1.33;1.00
57497;PMS5003;43336;51.416;-0.810;2023-04-25T13:49:28;1.00;1.00;1.00
57497;PMS5003;43336;51.416;-0.810;2023-04-25T13:52:29;1.00;1.00;0.00
57497;PMS5003;43336;51.416;-0.810;2023-04-25T13:55:30;1.00;1.00;1.00
57497;PMS5003;43336;51.416;-0.810;2023-04-25T13:58:30;1.00;1.00;1.00
57497;PMS5003;43336;51.416;-0.810;2023-04-25T14:01:32;0.00;0.00;0.00
57497;PMS5003;43336;51.416;-0.810;2023-04-25T14:04:35;1.00;1.00;1.00
57497;PMS5003;43336;51.416;-0.810;2023-04-25T14:07:36;2.00;2.00;1.00
57497;PMS5003;43336;51.416;-0.810;2023-04-25T14:10:37;1.33;1.33;1.00
57497;PMS5003;43336;51.416;-0.810;2023-04-25T14:13:38;1.33;1.33;1.00
57497;PMS5003;43336;51.416;-0.810;2023-04-25T14:16:38;8.00;8.00;7.00
57497;PMS5003;43336;51.416;-0.810;2023-04-25T14:19:39;20.33;20.33;17.00
57497;PMS5003;43336;51.416;-0.810;2023-04-25T14:22:43;22.67;22.33;19.00
57497;PMS5003;43336;51.416;-0.810;2023-04-25T14:25:44;22.00;22.00;19.67
57497;PMS5003;43336;51.416;-0.810;2023-04-25T14:28:45;15.33;15.33;14.00
57497;PMS5003;43336;51.416;-0.810;2023-04-25T14:31:45;16.33;16.33;15.33
57497;PMS5003;43336;51.416;-0.810;2023-04-25T14:34:46;13.67;13.33;12.00
57497;PMS5003;43336;51.416;-0.810;2023-04-25T14:37:47;13.00;13.00;12.00
57497;PMS5003;43336;51.416;-0.810;2023-04-25T14:40:48;12.00;12.00;11.33
57497;PMS5003;43336;51.416;-0.810;2023-04-25T14:43:50;16.33;16.33;14.33
57497;PMS5003;43336;51.416;-0.810;2023-04-25T14:46:50;12.33;12.33;12.00
57497;PMS5003;43336;51.416;-0.810;2023-04-25T14:49:52;12.67;12.00;11.00
57497;PMS5003;43336;51.416;-0.810;2023-04-25T14:52:54;13.00;13.00;12.00
57497;PMS5003;43336;51.416;-0.810;2023-04-25T14:55:59;11.33;11.33;10.67
57497;PMS5003;43336;51.416;-0.810;2023-04-25T14:58:59;11.00;11.00;8.67
57497;PMS5003;43336;51.416;-0.810;2023-04-25T15:02:00;11.67;11.67;10.33
57497;PMS5003;43336;51.416;-0.810;2023-04-25T15:05:01;12.67;12.67;11.00
57497;PMS5003;43336;51.416;-0.810;2023-04-25T15:08:03;11.33;11.33;10.33
57497;PMS5003;43336;51.416;-0.810;2023-04-25T15:11:04;10.67;10.67;9.00
57497;PMS5003;43336;51.416;-0.810;2023-04-25T15:14:05;11.00;11.00;10.00
57497;PMS5003;43336;51.416;-0.810;2023-04-25T15:17:05;12.00;12.00;11.67
57497;PMS5003;43336;51.416;-0.810;2023-04-25T15:20:07;9.00;9.00;8.67
57497;PMS5003;43336;51.416;-0.810;2023-04-25T15:23:13;10.67;10.67;10.00
57497;PMS5003;43336;51.416;-0.810;2023-04-25T15:26:13;11.00;11.00;8.67
57497;PMS5003;43336;51.416;-0.810;2023-04-25T15:29:19;11.67;11.67;10.00
57497;PMS5003;43336;51.416;-0.810;2023-04-25T15:32:20;9.00;9.00;8.00
57497;PMS5003;43336;51.416;-0.810;2023-04-25T15:35:22;10.00;10.00;9.00
57497;PMS5003;43336;51.416;-0.810;2023-04-25T15:38:23;9.00;9.00;7.00
57497;PMS5003;43336;51.416;-0.810;2023-04-25T15:41:24;8.00;8.00;7.33
57497;PMS5003;43336;51.416;-0.810;2023-04-25T15:44:25;6.33;6.33;5.67
57497;PMS5003;43336;51.416;-0.810;2023-04-25T15:47:26;7.67;7.67;7.00
57497;PMS5003;43336;51.416;-0.810;2023-04-25T15:50:27;8.00;8.00;7.00
57497;PMS5003;43336;51.416;-0.810;2023-04-25T15:53:28;8.00;8.00;7.33
57497;PMS5003;43336;51.416;-0.810;2023-04-25T15:56:29;8.67;7.67;6.67
57497;PMS5003;43336;51.416;-0.810;2023-04-25T15:59:29;6.00;6.00;6.00
57497;PMS5003;43336;51.416;-0.810;2023-04-25T16:02:30;8.00;8.00;6.00
57497;PMS5003;43336;51.416;-0.810;2023-04-25T16:05:31;6.00;6.00;5.00
57497;PMS5003;43336;51.416;-0.810;2023-04-25T16:08:32;8.00;7.67;6.67
57497;PMS5003;43336;51.416;-0.810;2023-04-25T16:11:34;7.00;7.00;5.00
57497;PMS5003;43336;51.416;-0.810;2023-04-25T16:14:35;7.00;7.00;5.00
57497;PMS5003;43336;51.416;-0.810;2023-04-25T16:17:36;5.00;5.00;4.67
57497;PMS5003;43336;51.416;-0.810;2023-04-25T16:20:37;6.67;6.33;5.33
57497;PMS5003;43336;51.416;-0.810;2023-04-25T16:23:37;5.00;5.00;4.33
57497;PMS5003;43336;51.416;-0.810;2023-04-25T16:26:38;5.00;5.00;5.00
57497;PMS5003;43336;51.416;-0.810;2023-04-25T16:29:42;7.00;7.00;6.00
57497;PMS5003;43336;51.416;-0.810;2023-04-25T16:32:43;4.67;4.67;4.00
57497;PMS5003;43336;51.416;-0.810;2023-04-25T16:35:44;6.00;6.00;6.00
57497;PMS5003;43336;51.416;-0.810;2023-04-25T16:38:45;6.33;6.33;5.67
57497;PMS5003;43336;51.416;-0.810;2023-04-25T16:41:46;5.67;5.67;4.67
57497;PMS5003;43336;51.416;-0.810;2023-04-25T16:44:47;5.00;5.00;5.00
57497;PMS5003;43336;51.416;-0.810;2023-04-25T16:47:48;5.00;5.00;4.00
57497;PMS5003;43336;51.416;-0.810;2023-04-25T16:50:49;6.00;6.00;5.00
57497;PMS5003;43336;51.416;-0.810;2023-04-25T16:53:51;5.33;5.33;5.00
57497;PMS5003;43336;51.416;-0.810;2023-04-25T16:56:53;4.67;4.67;4.67
57497;PMS5003;43336;51.416;-0.810;2023-04-25T16:59:54;4.33;4.33;3.33
57497;PMS5003;43336;51.416;-0.810;2023-04-25T17:02:56;3.67;3.67;3.00
57497;PMS5003;43336;51.416;-0.810;2023-04-25T17:05:57;4.00;4.00;3.67
57497;PMS5003;43336;51.416;-0.810;2023-04-25T17:09:00;3.67;3.67;3.00
57497;PMS5003;43336;51.416;-0.810;2023-04-25T17:12:01;4.67;4.67;4.00
57497;PMS5003;43336;51.416;-0.810;2023-04-25T17:15:03;4.00;4.00;4.00
57497;PMS5003;43336;51.416;-0.810;2023-04-25T17:18:04;4.00;4.00;3.33
57497;PMS5003;43336;51.416;-0.810;2023-04-25T17:21:05;5.33;5.33;5.00
57497;PMS5003;43336;51.416;-0.810;2023-04-25T17:24:06;4.33;4.33;4.00
57497;PMS5003;43336;51.416;-0.810;2023-04-25T17:27:11;4.33;4.33;4.00
57497;PMS5003;43336;51.416;-0.810;2023-04-25T17:30:11;6.00;6.00;5.33
57497;PMS5003;43336;51.416;-0.810;2023-04-25T17:33:13;4.33;4.33;4.33
57497;PMS5003;43336;51.416;-0.810;2023-04-25T17:36:14;5.00;5.00;4.00
57497;PMS5003;43336;51.416;-0.810;2023-04-25T17:39:14;4.00;4.00;3.67
57497;PMS5003;43336;51.416;-0.810;2023-04-25T17:42:16;4.00;4.00;4.00
57497;PMS5003;43336;51.416;-0.810;2023-04-25T17:45:17;4.33;4.33;4.00